sensor_id;sensor_type;location;lat;lon;timestamp;P1;durP1;ratioP1;P2;durP2;ratioP2
20423;SDS011;10371;49.042;8.002;2022-12-29T00:00:27;2.87;;;2.67;;
20423;SDS011;10371;49.042;8.002;2022-12-29T00:01:27;2.87;;;2.60;;
20423;SDS011;10371;49.042;8.002;2022-12-29T00:02:27;2.53;;;2.33;;
20423;SDS011;10371;49.042;8.002;2022-12-29T00:03:28;4.63;;;2.70;;
20423;SDS011;10371;49.042;8.002;2022-12-29T00:04:28;2.53;;;2.10;;
20423;SDS011;10371;49.042;8.002;2022-12-29T00:05:28;3.10;;;2.30;;
20423;SDS011;10371;49.042;8.002;2022-12-29T00:06:29;3.03;;;2.43;;
20423;SDS011;10371;49.042;8.002;2022-12-29T00:07:29;3.17;;;2.23;;
20423;SDS011;10371;49.042;8.002;2022-12-29T00:08:30;4.97;;;2.50;;
20423;SDS011;10371;49.042;8.002;2022-12-29T00:09:39;2.67;;;2.10;;
20423;SDS011;10371;49.042;8.002;2022-12-29T00:10:39;2.87;;;2.30;;
20423;SDS011;10371;49.042;8.002;2022-12-29T00:11:39;3.30;;;1.87;;
20423;SDS011;10371;49.042;8.002;2022-12-29T00:12:40;2.90;;;2.30;;
20423;SDS011;10371;49.042;8.002;2022-12-29T00:13:59;2.87;;;2.03;;
20423;SDS011;10371;49.042;8.002;2022-12-29T00:15:18;2.53;;;1.97;;
20423;SDS011;10371;49.042;8.002;2022-12-29T00:16:37;2.20;;;2.00;;
20423;SDS011;10371;49.042;8.002;2022-12-29T00:17:38;3.03;;;2.20;;
20423;SDS011;10371;49.042;8.002;2022-12-29T00:18:38;2.67;;;1.80;;
20423;SDS011;10371;49.042;8.002;2022-12-29T00:19:38;4.53;;;2.10;;
20423;SDS011;10371;49.042;8.002;2022-12-29T00:20:57;2.40;;;1.90;;
20423;SDS011;10371;49.042;8.002;2022-12-29T00:22:16;2.23;;;1.90;;
20423;SDS011;10371;49.042;8.002;2022-12-29T00:23:36;2.30;;;2.10;;
20423;SDS011;10371;49.042;8.002;2022-12-29T00:24:55;2.40;;;2.10;;
20423;SDS011;10371;49.042;8.002;2022-12-29T00:26:02;3.90;;;1.90;;
20423;SDS011;10371;49.042;8.002;2022-12-29T00:27:21;2.85;;;1.98;;
20423;SDS011;10371;49.042;8.002;2022-12-29T00:28:40;1.70;;;1.53;;
20423;SDS011;10371;49.042;8.002;2022-12-29T00:29:59;3.50;;;1.60;;
20423;SDS011;10371;49.042;8.002;2022-12-29T00:31:17;2.90;;;1.77;;
20423;SDS011;10371;49.042;8.002;2022-12-29T00:32:37;2.08;;;1.50;;
20423;SDS011;10371;49.042;8.002;2022-12-29T00:33:55;3.20;;;1.73;;
20423;SDS011;10371;49.042;8.002;2022-12-29T00:35:16;2.97;;;1.45;;
20423;SDS011;10371;49.042;8.002;2022-12-29T00:36:29;1.83;;;1.40;;
20423;SDS011;10371;49.042;8.002;2022-12-29T00:37:32;2.47;;;1.80;;
20423;SDS011;10371;49.042;8.002;2022-12-29T00:38:53;2.80;;;1.55;;
20423;SDS011;10371;49.042;8.002;2022-12-29T00:40:16;1.70;;;1.60;;
20423;SDS011;10371;49.042;8.002;2022-12-29T00:41:35;1.95;;;1.60;;
20423;SDS011;10371;49.042;8.002;2022-12-29T00:42:54;2.83;;;1.50;;
20423;SDS011;10371;49.042;8.002;2022-12-29T00:44:13;3.67;;;1.88;;
20423;SDS011;10371;49.042;8.002;2022-12-29T00:45:14;3.80;;;1.92;;
20423;SDS011;10371;49.042;8.002;2022-12-29T00:46:14;4.45;;;1.50;;
20423;SDS011;10371;49.042;8.002;2022-12-29T00:47:14;3.60;;;1.60;;
20423;SDS011;10371;49.042;8.002;2022-12-29T00:48:14;1.83;;;1.67;;
20423;SDS011;10371;49.042;8.002;2022-12-29T00:49:15;3.80;;;1.90;;
20423;SDS011;10371;49.042;8.002;2022-12-29T00:50:30;1.95;;;1.77;;
20423;SDS011;10371;49.042;8.002;2022-12-29T00:51:30;3.13;;;2.05;;
20423;SDS011;10371;49.042;8.002;2022-12-29T00:52:30;2.67;;;2.20;;
20423;SDS011;10371;49.042;8.002;2022-12-29T00:53:31;2.55;;;1.90;;
20423;SDS011;10371;49.042;8.002;2022-12-29T00:54:32;2.15;;;1.52;;
20423;SDS011;10371;49.042;8.002;2022-12-29T00:55:37;2.33;;;1.80;;
20423;SDS011;10371;49.042;8.002;2022-12-29T00:56:38;2.28;;;1.70;;
20423;SDS011;10371;49.042;8.002;2022-12-29T00:57:38;2.78;;;1.90;;
20423;SDS011;10371;49.042;8.002;2022-12-29T00:58:38;3.03;;;1.92;;
20423;SDS011;10371;49.042;8.002;2022-12-29T00:59:39;1.77;;;1.55;;
20423;SDS011;10371;49.042;8.002;2022-12-29T01:00:40;3.75;;;1.95;;
20423;SDS011;10371;49.042;8.002;2022-12-29T01:01:41;3.40;;;2.30;;
20423;SDS011;10371;49.042;8.002;2022-12-29T01:02:42;3.10;;;2.00;;
20423;SDS011;10371;49.042;8.002;2022-12-29T01:03:42;4.03;;;1.73;;
20423;SDS011;10371;49.042;8.002;2022-12-29T01:04:42;4.28;;;1.88;;
20423;SDS011;10371;49.042;8.002;2022-12-29T01:05:43;2.13;;;1.65;;
20423;SDS011;10371;49.042;8.002;2022-12-29T01:06:44;2.00;;;1.63;;
20423;SDS011;10371;49.042;8.002;2022-12-29T01:07:44;2.80;;;1.90;;
20423;SDS011;10371;49.042;8.002;2022-12-29T01:08:44;3.92;;;1.90;;
20423;SDS011;10371;49.042;8.002;2022-12-29T01:09:45;2.05;;;1.67;;
20423;SDS011;10371;49.042;8.002;2022-12-29T01:11:07;2.92;;;2.10;;
20423;SDS011;10371;49.042;8.002;2022-12-29T01:12:09;2.40;;;2.08;;
20423;SDS011;10371;49.042;8.002;2022-12-29T01:13:10;2.35;;;1.60;;
20423;SDS011;10371;49.042;8.002;2022-12-29T01:14:10;2.50;;;1.92;;
20423;SDS011;10371;49.042;8.002;2022-12-29T01:15:12;3.00;;;1.67;;
20423;SDS011;10371;49.042;8.002;2022-12-29T01:16:14;3.87;;;1.90;;
20423;SDS011;10371;49.042;8.002;2022-12-29T01:17:14;1.70;;;1.60;;
20423;SDS011;10371;49.042;8.002;2022-12-29T01:18:14;3.25;;;1.90;;
20423;SDS011;10371;49.042;8.002;2022-12-29T01:19:15;2.45;;;1.73;;
20423;SDS011;10371;49.042;8.002;2022-12-29T01:20:16;3.42;;;2.00;;
20423;SDS011;10371;49.042;8.002;2022-12-29T01:21:17;3.35;;;1.92;;
20423;SDS011;10371;49.042;8.002;2022-12-29T01:22:17;2.25;;;1.88;;
20423;SDS011;10371;49.042;8.002;2022-12-29T01:23:17;2.38;;;1.80;;
20423;SDS011;10371;49.042;8.002;2022-12-29T01:24:18;2.88;;;1.67;;
20423;SDS011;10371;49.042;8.002;2022-12-29T01:25:19;4.40;;;1.95;;
20423;SDS011;10371;49.042;8.002;2022-12-29T01:26:19;2.03;;;1.80;;
20423;SDS011;10371;49.042;8.002;2022-12-29T01:27:19;4.00;;;2.08;;
20423;SDS011;10371;49.042;8.002;2022-12-29T01:28:20;2.30;;;1.70;;
20423;SDS011;10371;49.042;8.002;2022-12-29T01:29:20;2.92;;;1.90;;
20423;SDS011;10371;49.042;8.002;2022-12-29T01:30:21;1.92;;;1.73;;
20423;SDS011;10371;49.042;8.002;2022-12-29T01:31:22;3.67;;;1.63;;
20423;SDS011;10371;49.042;8.002;2022-12-29T01:32:22;2.67;;;1.83;;
20423;SDS011;10371;49.042;8.002;2022-12-29T01:33:23;2.75;;;1.80;;
20423;SDS011;10371;49.042;8.002;2022-12-29T01:34:23;3.90;;;1.98;;
20423;SDS011;10371;49.042;8.002;2022-12-29T01:35:23;2.03;;;1.70;;
20423;SDS011;10371;49.042;8.002;2022-12-29T01:36:23;2.13;;;1.73;;
20423;SDS011;10371;49.042;8.002;2022-12-29T01:37:25;2.15;;;1.77;;
20423;SDS011;10371;49.042;8.002;2022-12-29T01:38:25;3.03;;;1.80;;
20423;SDS011;10371;49.042;8.002;2022-12-29T01:39:25;1.60;;;1.50;;
20423;SDS011;10371;49.042;8.002;2022-12-29T01:40:25;3.72;;;1.90;;
20423;SDS011;10371;49.042;8.002;2022-12-29T01:41:26;3.78;;;1.98;;
20423;SDS011;10371;49.042;8.002;2022-12-29T01:42:26;2.03;;;1.70;;
20423;SDS011;10371;49.042;8.002;2022-12-29T01:44:49;2.60;;;1.70;;
20423;SDS011;10371;49.042;8.002;2022-12-29T01:45:56;3.17;;;1.65;;
20423;SDS011;10371;49.042;8.002;2022-12-29T01:46:56;2.40;;;1.73;;
20423;SDS011;10371;49.042;8.002;2022-12-29T01:47:57;1.98;;;1.70;;
20423;SDS011;10371;49.042;8.002;2022-12-29T01:51:23;1.83;;;1.73;;
20423;SDS011;10371;49.042;8.002;2022-12-29T01:52:26;2.80;;;1.80;;
20423;SDS011;10371;49.042;8.002;2022-12-29T01:53:30;2.10;;;1.55;;
20423;SDS011;10371;49.042;8.002;2022-12-29T01:54:37;1.58;;;1.40;;
20423;SDS011;10371;49.042;8.002;2022-12-29T01:55:51;1.85;;;1.70;;
20423;SDS011;10371;49.042;8.002;2022-12-29T01:56:56;2.42;;;1.55;;
20423;SDS011;10371;49.042;8.002;2022-12-29T01:58:01;1.88;;;1.77;;
20423;SDS011;10371;49.042;8.002;2022-12-29T01:59:06;1.93;;;1.83;;
20423;SDS011;10371;49.042;8.002;2022-12-29T02:00:12;2.47;;;1.80;;
20423;SDS011;10371;49.042;8.002;2022-12-29T02:01:14;3.47;;;1.63;;
20423;SDS011;10371;49.042;8.002;2022-12-29T02:02:16;2.00;;;1.80;;
20423;SDS011;10371;49.042;8.002;2022-12-29T02:03:17;1.63;;;1.52;;
20423;SDS011;10371;49.042;8.002;2022-12-29T02:04:21;2.90;;;1.65;;
20423;SDS011;10371;49.042;8.002;2022-12-29T02:05:27;2.70;;;1.75;;
20423;SDS011;10371;49.042;8.002;2022-12-29T02:06:35;4.53;;;1.83;;
20423;SDS011;10371;49.042;8.002;2022-12-29T02:07:41;2.70;;;1.52;;
20423;SDS011;10371;49.042;8.002;2022-12-29T02:08:42;4.80;;;1.90;;
20423;SDS011;10371;49.042;8.002;2022-12-29T02:09:47;2.05;;;1.50;;
20423;SDS011;10371;49.042;8.002;2022-12-29T02:10:49;2.67;;;1.52;;
20423;SDS011;10371;49.042;8.002;2022-12-29T02:11:50;3.73;;;1.70;;
20423;SDS011;10371;49.042;8.002;2022-12-29T02:12:51;2.17;;;1.50;;
20423;SDS011;10371;49.042;8.002;2022-12-29T02:13:52;2.45;;;1.58;;
20423;SDS011;10371;49.042;8.002;2022-12-29T02:14:57;2.08;;;1.80;;
20423;SDS011;10371;49.042;8.002;2022-12-29T02:25:49;2.07;;;1.87;;
20423;SDS011;10371;49.042;8.002;2022-12-29T02:32:03;2.33;;;1.83;;
20423;SDS011;10371;49.042;8.002;2022-12-29T02:37:02;2.63;;;2.03;;
20423;SDS011;10371;49.042;8.002;2022-12-29T02:38:20;3.00;;;1.90;;
20423;SDS011;10371;49.042;8.002;2022-12-29T02:39:42;2.67;;;1.80;;
20423;SDS011;10371;49.042;8.002;2022-12-29T02:41:04;1.92;;;1.60;;
20423;SDS011;10371;49.042;8.002;2022-12-29T02:42:14;1.77;;;1.63;;
20423;SDS011;10371;49.042;8.002;2022-12-29T02:43:35;2.45;;;1.48;;
20423;SDS011;10371;49.042;8.002;2022-12-29T02:45:59;1.70;;;1.60;;
20423;SDS011;10371;49.042;8.002;2022-12-29T02:48:50;2.37;;;1.57;;
20423;SDS011;10371;49.042;8.002;2022-12-29T02:50:03;1.60;;;1.30;;
20423;SDS011;10371;49.042;8.002;2022-12-29T02:51:27;1.73;;;1.57;;
20423;SDS011;10371;49.042;8.002;2022-12-29T02:52:37;1.30;;;1.20;;
20423;SDS011;10371;49.042;8.002;2022-12-29T02:53:43;2.40;;;1.50;;
20423;SDS011;10371;49.042;8.002;2022-12-29T02:55:03;1.50;;;1.27;;
20423;SDS011;10371;49.042;8.002;2022-12-29T02:56:03;2.70;;;1.48;;
20423;SDS011;10371;49.042;8.002;2022-12-29T02:57:11;3.10;;;1.60;;
20423;SDS011;10371;49.042;8.002;2022-12-29T02:58:26;2.08;;;1.65;;
20423;SDS011;10371;49.042;8.002;2022-12-29T02:59:27;1.60;;;1.47;;
20423;SDS011;10371;49.042;8.002;2022-12-29T03:00:27;2.47;;;1.60;;
20423;SDS011;10371;49.042;8.002;2022-12-29T03:07:12;1.83;;;1.63;;
20423;SDS011;10371;49.042;8.002;2022-12-29T03:08:23;1.97;;;1.40;;
20423;SDS011;10371;49.042;8.002;2022-12-29T03:09:50;1.53;;;1.43;;
20423;SDS011;10371;49.042;8.002;2022-12-29T03:11:07;2.63;;;1.58;;
20423;SDS011;10371;49.042;8.002;2022-12-29T03:12:32;1.70;;;1.50;;
20423;SDS011;10371;49.042;8.002;2022-12-29T03:14:08;1.93;;;1.50;;
20423;SDS011;10371;49.042;8.002;2022-12-29T03:15:43;3.30;;;1.90;;
20423;SDS011;10371;49.042;8.002;2022-12-29T03:17:03;1.70;;;1.60;;
20423;SDS011;10371;49.042;8.002;2022-12-29T03:18:12;1.67;;;1.57;;
20423;SDS011;10371;49.042;8.002;2022-12-29T03:19:23;2.23;;;1.70;;
20423;SDS011;10371;49.042;8.002;2022-12-29T03:20:32;1.50;;;1.40;;
20423;SDS011;10371;49.042;8.002;2022-12-29T03:22:07;2.80;;;1.60;;
20423;SDS011;10371;49.042;8.002;2022-12-29T03:23:27;2.60;;;1.40;;
20423;SDS011;10371;49.042;8.002;2022-12-29T03:24:31;2.60;;;1.50;;
20423;SDS011;10371;49.042;8.002;2022-12-29T03:25:36;1.70;;;1.50;;
20423;SDS011;10371;49.042;8.002;2022-12-29T03:26:41;1.93;;;1.33;;
20423;SDS011;10371;49.042;8.002;2022-12-29T03:27:44;2.30;;;1.50;;
20423;SDS011;10371;49.042;8.002;2022-12-29T03:28:51;1.60;;;1.50;;
20423;SDS011;10371;49.042;8.002;2022-12-29T03:29:55;1.63;;;1.27;;
20423;SDS011;10371;49.042;8.002;2022-12-29T03:30:59;1.70;;;1.60;;
20423;SDS011;10371;49.042;8.002;2022-12-29T03:32:00;1.43;;;1.33;;
20423;SDS011;10371;49.042;8.002;2022-12-29T03:33:04;1.73;;;1.60;;
20423;SDS011;10371;49.042;8.002;2022-12-29T03:34:07;1.83;;;1.63;;
20423;SDS011;10371;49.042;8.002;2022-12-29T03:35:10;3.80;;;1.47;;
20423;SDS011;10371;49.042;8.002;2022-12-29T03:36:20;1.67;;;1.33;;
20423;SDS011;10371;49.042;8.002;2022-12-29T03:37:31;1.67;;;1.57;;
20423;SDS011;10371;49.042;8.002;2022-12-29T03:40:00;2.50;;;1.40;;
20423;SDS011;10371;49.042;8.002;2022-12-29T03:41:00;2.30;;;1.30;;
20423;SDS011;10371;49.042;8.002;2022-12-29T03:42:11;2.57;;;1.47;;
20423;SDS011;10371;49.042;8.002;2022-12-29T03:43:14;1.47;;;1.37;;
20423;SDS011;10371;49.042;8.002;2022-12-29T03:44:15;2.50;;;1.60;;
20423;SDS011;10371;49.042;8.002;2022-12-29T03:45:15;1.40;;;1.30;;
20423;SDS011;10371;49.042;8.002;2022-12-29T03:46:15;1.97;;;1.40;;
20423;SDS011;10371;49.042;8.002;2022-12-29T03:47:16;1.70;;;1.30;;
20423;SDS011;10371;49.042;8.002;2022-12-29T03:48:16;2.20;;;1.50;;
20423;SDS011;10371;49.042;8.002;2022-12-29T03:49:16;3.17;;;1.60;;
20423;SDS011;10371;49.042;8.002;2022-12-29T03:50:16;2.03;;;1.60;;
20423;SDS011;10371;49.042;8.002;2022-12-29T03:51:17;2.20;;;1.40;;
20423;SDS011;10371;49.042;8.002;2022-12-29T03:52:17;2.33;;;1.20;;
20423;SDS011;10371;49.042;8.002;2022-12-29T03:53:18;2.28;;;1.60;;
20423;SDS011;10371;49.042;8.002;2022-12-29T03:54:18;1.83;;;1.47;;
20423;SDS011;10371;49.042;8.002;2022-12-29T03:55:18;3.37;;;1.47;;
20423;SDS011;10371;49.042;8.002;2022-12-29T03:56:19;1.63;;;1.40;;
20423;SDS011;10371;49.042;8.002;2022-12-29T03:57:19;1.93;;;1.30;;
20423;SDS011;10371;49.042;8.002;2022-12-29T03:58:19;1.47;;;1.37;;
20423;SDS011;10371;49.042;8.002;2022-12-29T03:59:19;2.00;;;1.60;;
20423;SDS011;10371;49.042;8.002;2022-12-29T04:00:20;2.93;;;1.57;;
20423;SDS011;10371;49.042;8.002;2022-12-29T04:01:20;1.87;;;1.30;;
20423;SDS011;10371;49.042;8.002;2022-12-29T04:02:20;2.95;;;1.27;;
20423;SDS011;10371;49.042;8.002;2022-12-29T04:03:20;1.50;;;1.30;;
20423;SDS011;10371;49.042;8.002;2022-12-29T04:04:21;1.93;;;1.37;;
20423;SDS011;10371;49.042;8.002;2022-12-29T04:05:21;1.52;;;1.42;;
20423;SDS011;10371;49.042;8.002;2022-12-29T04:06:21;1.10;;;1.05;;
20423;SDS011;10371;49.042;8.002;2022-12-29T04:07:22;1.97;;;1.50;;
20423;SDS011;10371;49.042;8.002;2022-12-29T04:08:22;1.30;;;1.20;;
20423;SDS011;10371;49.042;8.002;2022-12-29T04:09:22;2.05;;;1.40;;
20423;SDS011;10371;49.042;8.002;2022-12-29T04:10:23;1.40;;;1.30;;
20423;SDS011;10371;49.042;8.002;2022-12-29T04:11:23;1.60;;;1.40;;
20423;SDS011;10371;49.042;8.002;2022-12-29T04:12:23;1.30;;;1.20;;
20423;SDS011;10371;49.042;8.002;2022-12-29T04:13:23;1.55;;;1.45;;
20423;SDS011;10371;49.042;8.002;2022-12-29T04:14:24;1.40;;;1.30;;
20423;SDS011;10371;49.042;8.002;2022-12-29T04:15:24;1.17;;;1.17;;
20423;SDS011;10371;49.042;8.002;2022-12-29T04:16:26;1.38;;;1.27;;
20423;SDS011;10371;49.042;8.002;2022-12-29T04:17:26;1.83;;;1.10;;
20423;SDS011;10371;49.042;8.002;2022-12-29T04:18:26;1.52;;;1.40;;
20423;SDS011;10371;49.042;8.002;2022-12-29T04:19:26;1.55;;;1.30;;
20423;SDS011;10371;49.042;8.002;2022-12-29T04:20:27;2.35;;;1.42;;
20423;SDS011;10371;49.042;8.002;2022-12-29T04:21:45;1.45;;;1.35;;
20423;SDS011;10371;49.042;8.002;2022-12-29T04:22:46;2.30;;;1.58;;
20423;SDS011;10371;49.042;8.002;2022-12-29T04:23:46;2.92;;;1.40;;
20423;SDS011;10371;49.042;8.002;2022-12-29T04:24:46;2.33;;;1.30;;
20423;SDS011;10371;49.042;8.002;2022-12-29T04:25:47;2.40;;;1.30;;
20423;SDS011;10371;49.042;8.002;2022-12-29T04:26:48;1.50;;;1.40;;
20423;SDS011;10371;49.042;8.002;2022-12-29T04:27:48;2.30;;;1.30;;
20423;SDS011;10371;49.042;8.002;2022-12-29T04:28:48;1.38;;;1.27;;
20423;SDS011;10371;49.042;8.002;2022-12-29T04:29:48;3.45;;;1.58;;
20423;SDS011;10371;49.042;8.002;2022-12-29T04:30:49;1.52;;;1.27;;
20423;SDS011;10371;49.042;8.002;2022-12-29T04:31:49;2.53;;;1.50;;
20423;SDS011;10371;49.042;8.002;2022-12-29T04:32:49;1.58;;;1.35;;
20423;SDS011;10371;49.042;8.002;2022-12-29T04:33:50;1.35;;;1.25;;
20423;SDS011;10371;49.042;8.002;2022-12-29T04:34:50;1.38;;;1.27;;
20423;SDS011;10371;49.042;8.002;2022-12-29T04:35:50;2.10;;;1.40;;
20423;SDS011;10371;49.042;8.002;2022-12-29T04:36:52;2.53;;;1.58;;
20423;SDS011;10371;49.042;8.002;2022-12-29T04:37:52;1.38;;;1.27;;
20423;SDS011;10371;49.042;8.002;2022-12-29T04:38:52;2.10;;;1.40;;
20423;SDS011;10371;49.042;8.002;2022-12-29T04:39:52;1.50;;;1.40;;
20423;SDS011;10371;49.042;8.002;2022-12-29T04:40:53;2.40;;;1.58;;
20423;SDS011;10371;49.042;8.002;2022-12-29T04:41:53;3.63;;;1.58;;
20423;SDS011;10371;49.042;8.002;2022-12-29T04:42:53;2.70;;;1.30;;
20423;SDS011;10371;49.042;8.002;2022-12-29T04:43:54;2.25;;;2.05;;
20423;SDS011;10371;49.042;8.002;2022-12-29T04:44:54;2.50;;;1.88;;
20423;SDS011;10371;49.042;8.002;2022-12-29T04:45:54;1.80;;;1.67;;
20423;SDS011;10371;49.042;8.002;2022-12-29T04:46:54;5.80;;;2.35;;
20423;SDS011;10371;49.042;8.002;2022-12-29T04:47:55;3.95;;;2.30;;
20423;SDS011;10371;49.042;8.002;2022-12-29T04:48:55;3.28;;;1.77;;
20423;SDS011;10371;49.042;8.002;2022-12-29T04:49:55;1.73;;;1.63;;
20423;SDS011;10371;49.042;8.002;2022-12-29T04:50:55;2.97;;;2.10;;
20423;SDS011;10371;49.042;8.002;2022-12-29T04:51:56;2.50;;;2.15;;
20423;SDS011;10371;49.042;8.002;2022-12-29T04:52:56;1.85;;;1.70;;
20423;SDS011;10371;49.042;8.002;2022-12-29T04:53:57;2.03;;;1.80;;
20423;SDS011;10371;49.042;8.002;2022-12-29T04:54:57;2.72;;;2.05;;
20423;SDS011;10371;49.042;8.002;2022-12-29T04:55:57;2.75;;;2.20;;
20423;SDS011;10371;49.042;8.002;2022-12-29T04:56:57;2.60;;;2.40;;
20423;SDS011;10371;49.042;8.002;2022-12-29T04:57:58;3.50;;;2.15;;
20423;SDS011;10371;49.042;8.002;2022-12-29T04:58:58;3.08;;;2.15;;
20423;SDS011;10371;49.042;8.002;2022-12-29T04:59:58;2.95;;;2.20;;
20423;SDS011;10371;49.042;8.002;2022-12-29T05:00:59;3.15;;;2.13;;
20423;SDS011;10371;49.042;8.002;2022-12-29T05:01:59;2.28;;;1.58;;
20423;SDS011;10371;49.042;8.002;2022-12-29T05:02:59;1.70;;;1.60;;
20423;SDS011;10371;49.042;8.002;2022-12-29T05:04:00;2.35;;;2.15;;
20423;SDS011;10371;49.042;8.002;2022-12-29T05:05:00;3.38;;;2.88;;
20423;SDS011;10371;49.042;8.002;2022-12-29T05:06:00;4.60;;;3.30;;
20423;SDS011;10371;49.042;8.002;2022-12-29T05:07:01;3.58;;;3.05;;
20423;SDS011;10371;49.042;8.002;2022-12-29T05:08:01;5.13;;;4.63;;
20423;SDS011;10371;49.042;8.002;2022-12-29T05:09:01;2.95;;;2.40;;
20423;SDS011;10371;49.042;8.002;2022-12-29T05:10:02;2.90;;;2.55;;
20423;SDS011;10371;49.042;8.002;2022-12-29T05:11:03;2.28;;;2.17;;
20423;SDS011;10371;49.042;8.002;2022-12-29T05:12:03;2.65;;;2.45;;
20423;SDS011;10371;49.042;8.002;2022-12-29T05:13:04;3.60;;;2.30;;
20423;SDS011;10371;49.042;8.002;2022-12-29T05:14:04;2.63;;;1.60;;
20423;SDS011;10371;49.042;8.002;2022-12-29T05:15:06;1.95;;;1.65;;
20423;SDS011;10371;49.042;8.002;2022-12-29T05:16:07;2.38;;;1.67;;
20423;SDS011;10371;49.042;8.002;2022-12-29T05:17:07;2.25;;;2.13;;
20423;SDS011;10371;49.042;8.002;2022-12-29T05:18:08;2.08;;;1.85;;
20423;SDS011;10371;49.042;8.002;2022-12-29T05:19:08;2.20;;;1.90;;
20423;SDS011;10371;49.042;8.002;2022-12-29T05:20:08;2.15;;;1.98;;
20423;SDS011;10371;49.042;8.002;2022-12-29T05:21:09;2.40;;;2.20;;
20423;SDS011;10371;49.042;8.002;2022-12-29T05:22:09;2.65;;;1.80;;
20423;SDS011;10371;49.042;8.002;2022-12-29T05:23:09;3.05;;;1.90;;
20423;SDS011;10371;49.042;8.002;2022-12-29T05:24:10;1.95;;;1.75;;
20423;SDS011;10371;49.042;8.002;2022-12-29T05:25:10;2.65;;;1.80;;
20423;SDS011;10371;49.042;8.002;2022-12-29T05:26:10;1.95;;;1.80;;
20423;SDS011;10371;49.042;8.002;2022-12-29T05:27:10;2.45;;;1.95;;
20423;SDS011;10371;49.042;8.002;2022-12-29T05:28:11;2.55;;;1.63;;
20423;SDS011;10371;49.042;8.002;2022-12-29T05:29:11;2.50;;;1.60;;
20423;SDS011;10371;49.042;8.002;2022-12-29T05:30:11;2.28;;;1.60;;
20423;SDS011;10371;49.042;8.002;2022-12-29T05:31:12;2.10;;;1.90;;
20423;SDS011;10371;49.042;8.002;2022-12-29T05:32:13;2.83;;;1.63;;
20423;SDS011;10371;49.042;8.002;2022-12-29T05:33:13;2.00;;;1.67;;
20423;SDS011;10371;49.042;8.002;2022-12-29T05:34:13;2.30;;;1.95;;
20423;SDS011;10371;49.042;8.002;2022-12-29T05:35:14;2.03;;;1.90;;
20423;SDS011;10371;49.042;8.002;2022-12-29T05:36:14;2.58;;;1.98;;
20423;SDS011;10371;49.042;8.002;2022-12-29T05:37:14;2.47;;;2.08;;
20423;SDS011;10371;49.042;8.002;2022-12-29T05:38:14;3.50;;;2.80;;
20423;SDS011;10371;49.042;8.002;2022-12-29T05:39:15;2.65;;;2.38;;
20423;SDS011;10371;49.042;8.002;2022-12-29T05:40:15;3.05;;;2.60;;
20423;SDS011;10371;49.042;8.002;2022-12-29T05:41:15;3.30;;;2.72;;
20423;SDS011;10371;49.042;8.002;2022-12-29T05:42:16;2.92;;;2.60;;
20423;SDS011;10371;49.042;8.002;2022-12-29T05:43:16;3.15;;;2.83;;
20423;SDS011;10371;49.042;8.002;2022-12-29T05:44:17;2.45;;;1.67;;
20423;SDS011;10371;49.042;8.002;2022-12-29T05:45:17;3.42;;;2.25;;
20423;SDS011;10371;49.042;8.002;2022-12-29T05:46:17;2.63;;;1.88;;
20423;SDS011;10371;49.042;8.002;2022-12-29T05:47:17;2.50;;;2.03;;
20423;SDS011;10371;49.042;8.002;2022-12-29T05:48:17;3.35;;;2.20;;
20423;SDS011;10371;49.042;8.002;2022-12-29T05:49:18;3.47;;;2.78;;
20423;SDS011;10371;49.042;8.002;2022-12-29T05:50:18;2.08;;;1.88;;
20423;SDS011;10371;49.042;8.002;2022-12-29T05:51:18;3.55;;;1.80;;
20423;SDS011;10371;49.042;8.002;2022-12-29T05:52:19;3.30;;;2.25;;
20423;SDS011;10371;49.042;8.002;2022-12-29T05:53:19;2.90;;;2.58;;
20423;SDS011;10371;49.042;8.002;2022-12-29T05:54:20;4.22;;;2.75;;
20423;SDS011;10371;49.042;8.002;2022-12-29T05:55:20;4.03;;;2.30;;
20423;SDS011;10371;49.042;8.002;2022-12-29T05:56:20;4.13;;;3.40;;
20423;SDS011;10371;49.042;8.002;2022-12-29T05:57:21;2.50;;;2.30;;
20423;SDS011;10371;49.042;8.002;2022-12-29T05:58:21;2.00;;;1.70;;
20423;SDS011;10371;49.042;8.002;2022-12-29T05:59:21;2.35;;;1.38;;
20423;SDS011;10371;49.042;8.002;2022-12-29T06:00:21;2.42;;;2.08;;
20423;SDS011;10371;49.042;8.002;2022-12-29T06:01:22;2.30;;;1.60;;
20423;SDS011;10371;49.042;8.002;2022-12-29T06:02:22;2.10;;;1.88;;
20423;SDS011;10371;49.042;8.002;2022-12-29T06:03:22;2.58;;;2.13;;
20423;SDS011;10371;49.042;8.002;2022-12-29T06:04:23;1.80;;;1.70;;
20423;SDS011;10371;49.042;8.002;2022-12-29T06:05:23;2.17;;;1.98;;
20423;SDS011;10371;49.042;8.002;2022-12-29T06:06:23;3.00;;;2.30;;
20423;SDS011;10371;49.042;8.002;2022-12-29T06:07:23;2.60;;;2.30;;
20423;SDS011;10371;49.042;8.002;2022-12-29T06:08:24;4.15;;;3.28;;
20423;SDS011;10371;49.042;8.002;2022-12-29T06:09:24;3.35;;;2.28;;
20423;SDS011;10371;49.042;8.002;2022-12-29T06:10:24;3.15;;;2.60;;
20423;SDS011;10371;49.042;8.002;2022-12-29T06:11:25;3.80;;;2.30;;
20423;SDS011;10371;49.042;8.002;2022-12-29T06:12:25;3.50;;;2.70;;
20423;SDS011;10371;49.042;8.002;2022-12-29T06:13:25;3.42;;;2.38;;
20423;SDS011;10371;49.042;8.002;2022-12-29T06:14:27;3.88;;;2.00;;
20423;SDS011;10371;49.042;8.002;2022-12-29T06:15:28;1.83;;;1.70;;
20423;SDS011;10371;49.042;8.002;2022-12-29T06:16:29;3.63;;;2.20;;
20423;SDS011;10371;49.042;8.002;2022-12-29T06:17:29;2.65;;;2.08;;
20423;SDS011;10371;49.042;8.002;2022-12-29T06:18:29;1.80;;;1.70;;
20423;SDS011;10371;49.042;8.002;2022-12-29T06:19:29;2.63;;;1.85;;
20423;SDS011;10371;49.042;8.002;2022-12-29T06:20:30;3.67;;;2.15;;
20423;SDS011;10371;49.042;8.002;2022-12-29T06:21:30;4.30;;;2.03;;
20423;SDS011;10371;49.042;8.002;2022-12-29T06:22:30;3.53;;;2.88;;
20423;SDS011;10371;49.042;8.002;2022-12-29T06:23:31;5.05;;;2.70;;
20423;SDS011;10371;49.042;8.002;2022-12-29T06:24:31;4.32;;;2.78;;
20423;SDS011;10371;49.042;8.002;2022-12-29T06:25:32;4.72;;;2.60;;
20423;SDS011;10371;49.042;8.002;2022-12-29T06:26:33;3.58;;;2.60;;
20423;SDS011;10371;49.042;8.002;2022-12-29T06:27:33;3.72;;;2.65;;
20423;SDS011;10371;49.042;8.002;2022-12-29T06:28:34;2.50;;;2.30;;
20423;SDS011;10371;49.042;8.002;2022-12-29T06:29:34;2.55;;;2.35;;
20423;SDS011;10371;49.042;8.002;2022-12-29T06:30:36;2.60;;;2.40;;
20423;SDS011;10371;49.042;8.002;2022-12-29T06:31:37;3.65;;;2.80;;
20423;SDS011;10371;49.042;8.002;2022-12-29T06:32:38;4.65;;;3.15;;
20423;SDS011;10371;49.042;8.002;2022-12-29T06:33:38;3.83;;;2.97;;
20423;SDS011;10371;49.042;8.002;2022-12-29T06:34:39;5.55;;;4.88;;
20423;SDS011;10371;49.042;8.002;2022-12-29T06:35:39;5.88;;;4.68;;
20423;SDS011;10371;49.042;8.002;2022-12-29T06:36:39;5.38;;;4.70;;
20423;SDS011;10371;49.042;8.002;2022-12-29T06:37:39;4.03;;;3.63;;
20423;SDS011;10371;49.042;8.002;2022-12-29T06:38:40;4.68;;;3.80;;
20423;SDS011;10371;49.042;8.002;2022-12-29T06:39:40;4.57;;;2.67;;
20423;SDS011;10371;49.042;8.002;2022-12-29T06:40:41;3.45;;;2.60;;
20423;SDS011;10371;49.042;8.002;2022-12-29T06:41:42;3.25;;;2.80;;
20423;SDS011;10371;49.042;8.002;2022-12-29T06:42:43;3.88;;;2.72;;
20423;SDS011;10371;49.042;8.002;2022-12-29T06:43:43;3.10;;;2.50;;
20423;SDS011;10371;49.042;8.002;2022-12-29T06:44:43;3.10;;;2.80;;
20423;SDS011;10371;49.042;8.002;2022-12-29T06:45:44;3.45;;;2.17;;
20423;SDS011;10371;49.042;8.002;2022-12-29T06:46:44;2.88;;;2.55;;
20423;SDS011;10371;49.042;8.002;2022-12-29T06:47:44;3.88;;;2.97;;
20423;SDS011;10371;49.042;8.002;2022-12-29T06:48:44;2.53;;;2.33;;
20423;SDS011;10371;49.042;8.002;2022-12-29T06:49:45;2.40;;;2.20;;
20423;SDS011;10371;49.042;8.002;2022-12-29T06:50:45;3.03;;;2.50;;
20423;SDS011;10371;49.042;8.002;2022-12-29T06:51:45;2.38;;;2.10;;
20423;SDS011;10371;49.042;8.002;2022-12-29T06:52:46;2.45;;;1.95;;
20423;SDS011;10371;49.042;8.002;2022-12-29T06:53:46;1.92;;;1.83;;
20423;SDS011;10371;49.042;8.002;2022-12-29T06:54:46;4.45;;;2.10;;